sensor_id;sensor_type;location;lat;lon;timestamp;temperature;humidity
23079;DHT22;11707;50.830;4.364;2023-05-14T00:02:24;12.70;99.90
23079;DHT22;11707;50.830;4.364;2023-05-14T00:04:49;12.70;99.90
23079;DHT22;11707;50.830;4.364;2023-05-14T00:07:15;12.60;99.90
23079;DHT22;11707;50.830;4.364;2023-05-14T00:09:41;12.50;99.90
23079;DHT22;11707;50.830;4.364;2023-05-14T00:12:07;12.50;99.90
23079;DHT22;11707;50.830;4.364;2023-05-14T00:14:33;12.60;99.90
23079;DHT22;11707;50.830;4.364;2023-05-14T00:16:58;12.70;99.90
23079;DHT22;11707;50.830;4.364;2023-05-14T00:19:25;12.60;99.90
23079;DHT22;11707;50.830;4.364;2023-05-14T00:21:50;12.60;99.90
23079;DHT22;11707;50.830;4.364;2023-05-14T00:24:19;12.60;99.90
23079;DHT22;11707;50.830;4.364;2023-05-14T00:26:45;12.70;99.90
23079;DHT22;11707;50.830;4.364;2023-05-14T00:29:10;12.60;99.90
23079;DHT22;11707;50.830;4.364;2023-05-14T00:31:36;12.60;99.90
23079;DHT22;11707;50.830;4.364;2023-05-14T00:34:02;12.70;99.90
23079;DHT22;11707;50.830;4.364;2023-05-14T00:36:28;12.60;99.90
23079;DHT22;11707;50.830;4.364;2023-05-14T00:38:53;12.50;99.90
23079;DHT22;11707;50.830;4.364;2023-05-14T00:41:20;12.40;99.90
23079;DHT22;11707;50.830;4.364;2023-05-14T00:43:46;12.50;99.90
23079;DHT22;11707;50.830;4.364;2023-05-14T00:46:12;12.50;99.90
23079;DHT22;11707;50.830;4.364;2023-05-14T00:48:38;12.60;99.90
23079;DHT22;11707;50.830;4.364;2023-05-14T00:51:07;12.60;99.90
23079;DHT22;11707;50.830;4.364;2023-05-14T00:53:33;12.60;99.90
23079;DHT22;11707;50.830;4.364;2023-05-14T00:56:00;12.60;99.90
23079;DHT22;11707;50.830;4.364;2023-05-14T00:58:28;12.60;99.90
23079;DHT22;11707;50.830;4.364;2023-05-14T01:00:54;12.50;99.90
23079;DHT22;11707;50.830;4.364;2023-05-14T01:03:20;12.40;99.90
23079;DHT22;11707;50.830;4.364;2023-05-14T01:11:39;12.30;99.90
23079;DHT22;11707;50.830;4.364;2023-05-14T01:14:55;12.30;99.90
23079;DHT22;11707;50.830;4.364;2023-05-14T01:17:21;12.30;99.90
23079;DHT22;11707;50.830;4.364;2023-05-14T01:19:50;12.30;99.90
23079;DHT22;11707;50.830;4.364;2023-05-14T01:22:16;12.30;99.90
23079;DHT22;11707;50.830;4.364;2023-05-14T01:24:42;12.20;99.90
23079;DHT22;11707;50.830;4.364;2023-05-14T01:32:40;12.30;99.90
23079;DHT22;11707;50.830;4.364;2023-05-14T01:35:08;12.30;99.90
23079;DHT22;11707;50.830;4.364;2023-05-14T01:37:35;12.40;99.90
23079;DHT22;11707;50.830;4.364;2023-05-14T01:40:01;12.40;99.90
23079;DHT22;11707;50.830;4.364;2023-05-14T01:42:30;12.30;99.90
23079;DHT22;11707;50.830;4.364;2023-05-14T01:44:57;12.30;99.90
23079;DHT22;11707;50.830;4.364;2023-05-14T01:47:22;12.30;99.90
23079;DHT22;11707;50.830;4.364;2023-05-14T01:49:48;12.40;99.90
23079;DHT22;11707;50.830;4.364;2023-05-14T01:52:14;12.40;99.90
23079;DHT22;11707;50.830;4.364;2023-05-14T01:54:40;12.30;99.90
23079;DHT22;11707;50.830;4.364;2023-05-14T01:57:05;12.20;99.90
23079;DHT22;11707;50.830;4.364;2023-05-14T01:59:36;12.20;99.90
23079;DHT22;11707;50.830;4.364;2023-05-14T02:02:02;12.30;99.90
23079;DHT22;11707;50.830;4.364;2023-05-14T02:04:27;12.20;99.90
23079;DHT22;11707;50.830;4.364;2023-05-14T02:06:53;12.20;99.90
23079;DHT22;11707;50.830;4.364;2023-05-14T02:09:19;12.20;99.90
23079;DHT22;11707;50.830;4.364;2023-05-14T02:11:45;12.10;99.90
23079;DHT22;11707;50.830;4.364;2023-05-14T02:14:10;12.20;99.90
23079;DHT22;11707;50.830;4.364;2023-05-14T02:16:36;12.20;99.90
23079;DHT22;11707;50.830;4.364;2023-05-14T02:19:02;12.20;99.90
23079;DHT22;11707;50.830;4.364;2023-05-14T02:21:27;12.20;99.90
23079;DHT22;11707;50.830;4.364;2023-05-14T02:23:55;12.20;99.90
23079;DHT22;11707;50.830;4.364;2023-05-14T02:26:23;12.20;99.90
23079;DHT22;11707;50.830;4.364;2023-05-14T02:28:49;12.20;99.90
23079;DHT22;11707;50.830;4.364;2023-05-14T02:31:15;12.30;99.90
23079;DHT22;11707;50.830;4.364;2023-05-14T02:33:43;12.30;99.90
23079;DHT22;11707;50.830;4.364;2023-05-14T02:36:09;12.40;99.90
23079;DHT22;11707;50.830;4.364;2023-05-14T02:38:37;12.30;99.90
23079;DHT22;11707;50.830;4.364;2023-05-14T02:41:02;12.20;99.90
23079;DHT22;11707;50.830;4.364;2023-05-14T02:43:28;12.30;99.90
23079;DHT22;11707;50.830;4.364;2023-05-14T02:45:56;12.30;99.90
23079;DHT22;11707;50.830;4.364;2023-05-14T02:48:22;12.20;99.90
23079;DHT22;11707;50.830;4.364;2023-05-14T02:50:50;12.30;99.90
23079;DHT22;11707;50.830;4.364;2023-05-14T02:53:16;12.20;99.90
23079;DHT22;11707;50.830;4.364;2023-05-14T02:55:42;12.30;99.90
23079;DHT22;11707;50.830;4.364;2023-05-14T02:58:08;12.30;99.90
23079;DHT22;11707;50.830;4.364;2023-05-14T03:00:34;12.30;99.90
23079;DHT22;11707;50.830;4.364;2023-05-14T03:03:00;12.30;99.90
23079;DHT22;11707;50.830;4.364;2023-05-14T03:05:26;12.30;99.90
23079;DHT22;11707;50.830;4.364;2023-05-14T03:07:52;12.30;99.90
23079;DHT22;11707;50.830;4.364;2023-05-14T03:10:18;12.30;99.90
23079;DHT22;11707;50.830;4.364;2023-05-14T03:12:44;12.30;99.90
23079;DHT22;11707;50.830;4.364;2023-05-14T03:15:10;12.30;99.90
23079;DHT22;11707;50.830;4.364;2023-05-14T03:17:36;12.40;99.90
23079;DHT22;11707;50.830;4.364;2023-05-14T03:20:04;12.50;99.90
23079;DHT22;11707;50.830;4.364;2023-05-14T03:22:30;12.40;99.90
23079;DHT22;11707;50.830;4.364;2023-05-14T03:24:56;12.30;99.90
23079;DHT22;11707;50.830;4.364;2023-05-14T03:27:21;12.30;99.90
23079;DHT22;11707;50.830;4.364;2023-05-14T03:29:47;12.30;99.90
23079;DHT22;11707;50.830;4.364;2023-05-14T03:32:13;12.30;99.90
23079;DHT22;11707;50.830;4.364;2023-05-14T03:34:39;12.40;99.90
23079;DHT22;11707;50.830;4.364;2023-05-14T03:37:05;12.40;99.90
23079;DHT22;11707;50.830;4.364;2023-05-14T03:39:31;12.40;99.90
23079;DHT22;11707;50.830;4.364;2023-05-14T03:41:56;12.30;99.90
23079;DHT22;11707;50.830;4.364;2023-05-14T03:44:23;12.30;99.90
23079;DHT22;11707;50.830;4.364;2023-05-14T03:46:54;12.40;99.90
23079;DHT22;11707;50.830;4.364;2023-05-14T03:49:20;12.50;99.90
23079;DHT22;11707;50.830;4.364;2023-05-14T03:51:45;12.60;99.90
23079;DHT22;11707;50.830;4.364;2023-05-14T03:54:11;12.60;99.90
23079;DHT22;11707;50.830;4.364;2023-05-14T03:56:37;12.60;99.90
23079;DHT22;11707;50.830;4.364;2023-05-14T03:59:03;12.60;99.90
23079;DHT22;11707;50.830;4.364;2023-05-14T04:01:31;12.50;99.90
23079;DHT22;11707;50.830;4.364;2023-05-14T04:03:56;12.50;99.90
23079;DHT22;11707;50.830;4.364;2023-05-14T04:06:22;12.40;99.90
23079;DHT22;11707;50.830;4.364;2023-05-14T04:08:48;12.40;99.90
23079;DHT22;11707;50.830;4.364;2023-05-14T04:11:14;12.40;99.90
23079;DHT22;11707;50.830;4.364;2023-05-14T04:13:39;12.40;99.90
23079;DHT22;11707;50.830;4.364;2023-05-14T04:16:05;12.40;99.90
23079;DHT22;11707;50.830;4.364;2023-05-14T04:18:31;12.40;99.90
23079;DHT22;11707;50.830;4.364;2023-05-14T04:20:59;12.50;99.90
23079;DHT22;11707;50.830;4.364;2023-05-14T04:23:25;12.60;99.90
23079;DHT22;11707;50.830;4.364;2023-05-14T04:25:53;12.60;99.90
23079;DHT22;11707;50.830;4.364;2023-05-14T04:28:19;12.50;99.90
23079;DHT22;11707;50.830;4.364;2023-05-14T04:30:45;12.40;99.90
23079;DHT22;11707;50.830;4.364;2023-05-14T04:33:12;12.40;99.90
23079;DHT22;11707;50.830;4.364;2023-05-14T04:35:38;12.40;99.90
23079;DHT22;11707;50.830;4.364;2023-05-14T04:38:03;12.40;99.90
23079;DHT22;11707;50.830;4.364;2023-05-14T04:40:29;12.40;99.90
23079;DHT22;11707;50.830;4.364;2023-05-14T04:42:56;12.50;99.90
23079;DHT22;11707;50.830;4.364;2023-05-14T04:45:22;12.50;99.90
23079;DHT22;11707;50.830;4.364;2023-05-14T04:47:48;12.50;99.90
23079;DHT22;11707;50.830;4.364;2023-05-14T04:50:13;12.50;99.90
23079;DHT22;11707;50.830;4.364;2023-05-14T04:52:40;12.40;99.90
23079;DHT22;11707;50.830;4.364;2023-05-14T04:55:06;12.40;99.90
23079;DHT22;11707;50.830;4.364;2023-05-14T04:57:32;12.40;99.90
23079;DHT22;11707;50.830;4.364;2023-05-14T04:59:58;12.40;99.90
23079;DHT22;11707;50.830;4.364;2023-05-14T05:02:24;12.30;99.90
23079;DHT22;11707;50.830;4.364;2023-05-14T05:04:50;12.40;99.90
23079;DHT22;11707;50.830;4.364;2023-05-14T05:07:15;12.40;99.90
23079;DHT22;11707;50.830;4.364;2023-05-14T05:09:42;12.30;99.90
23079;DHT22;11707;50.830;4.364;2023-05-14T05:12:08;12.30;99.90
23079;DHT22;11707;50.830;4.364;2023-05-14T05:14:36;12.20;99.90
23079;DHT22;11707;50.830;4.364;2023-05-14T05:17:02;12.30;99.90
23079;DHT22;11707;50.830;4.364;2023-05-14T05:19:28;12.30;99.90
23079;DHT22;11707;50.830;4.364;2023-05-14T05:21:56;12.40;99.90
23079;DHT22;11707;50.830;4.364;2023-05-14T05:24:21;12.40;99.90
23079;DHT22;11707;50.830;4.364;2023-05-14T05:26:49;12.50;99.90
23079;DHT22;11707;50.830;4.364;2023-05-14T05:29:16;12.60;99.90
23079;DHT22;11707;50.830;4.364;2023-05-14T05:31:42;12.70;99.90
23079;DHT22;11707;50.830;4.364;2023-05-14T05:34:07;12.70;99.90
23079;DHT22;11707;50.830;4.364;2023-05-14T05:36:33;12.60;99.90
23079;DHT22;11707;50.830;4.364;2023-05-14T05:38:59;12.60;99.90
23079;DHT22;11707;50.830;4.364;2023-05-14T05:41:25;12.70;99.90
23079;DHT22;11707;50.830;4.364;2023-05-14T05:43:51;12.80;99.90
23079;DHT22;11707;50.830;4.364;2023-05-14T05:46:17;12.80;99.90
23079;DHT22;11707;50.830;4.364;2023-05-14T05:48:43;12.80;99.90
23079;DHT22;11707;50.830;4.364;2023-05-14T05:51:08;12.70;99.90
23079;DHT22;11707;50.830;4.364;2023-05-14T05:53:34;12.60;99.90
23079;DHT22;11707;50.830;4.364;2023-05-14T05:56:00;12.60;99.90
23079;DHT22;11707;50.830;4.364;2023-05-14T05:58:26;12.70;99.90
23079;DHT22;11707;50.830;4.364;2023-05-14T06:00:51;12.80;99.90
23079;DHT22;11707;50.830;4.364;2023-05-14T06:03:17;12.80;99.90
23079;DHT22;11707;50.830;4.364;2023-05-14T06:05:43;12.70;99.90
23079;DHT22;11707;50.830;4.364;2023-05-14T06:08:09;12.50;99.90
23079;DHT22;11707;50.830;4.364;2023-05-14T06:10:35;12.40;99.90
23079;DHT22;11707;50.830;4.364;2023-05-14T06:13:01;12.50;99.90
23079;DHT22;11707;50.830;4.364;2023-05-14T06:15:27;12.40;99.90
23079;DHT22;11707;50.830;4.364;2023-05-14T06:17:53;12.30;99.90
23079;DHT22;11707;50.830;4.364;2023-05-14T06:20:18;12.40;99.90
23079;DHT22;11707;50.830;4.364;2023-05-14T06:22:46;12.40;99.90
23079;DHT22;11707;50.830;4.364;2023-05-14T06:25:12;12.50;99.90
23079;DHT22;11707;50.830;4.364;2023-05-14T06:27:38;12.60;99.90
23079;DHT22;11707;50.830;4.364;2023-05-14T06:30:04;12.60;99.90
23079;DHT22;11707;50.830;4.364;2023-05-14T06:32:31;12.70;99.90
23079;DHT22;11707;50.830;4.364;2023-05-14T06:34:57;12.60;99.90
23079;DHT22;11707;50.830;4.364;2023-05-14T06:37:22;12.50;99.90
23079;DHT22;11707;50.830;4.364;2023-05-14T06:39:48;12.50;99.90
23079;DHT22;11707;50.830;4.364;2023-05-14T06:42:17;12.50;99.90
23079;DHT22;11707;50.830;4.364;2023-05-14T06:44:43;12.60;99.90
23079;DHT22;11707;50.830;4.364;2023-05-14T06:47:09;12.60;99.90
23079;DHT22;11707;50.830;4.364;2023-05-14T06:49:35;12.60;99.90
23079;DHT22;11707;50.830;4.364;2023-05-14T06:52:01;12.60;99.90
23079;DHT22;11707;50.830;4.364;2023-05-14T06:54:26;12.60;99.90
23079;DHT22;11707;50.830;4.364;2023-05-14T06:56:53;12.60;99.90
23079;DHT22;11707;50.830;4.364;2023-05-14T06:59:18;12.60;99.90
23079;DHT22;11707;50.830;4.364;2023-05-14T07:01:44;12.50;99.90
23079;DHT22;11707;50.830;4.364;2023-05-14T07:04:10;12.50;99.90
23079;DHT22;11707;50.830;4.364;2023-05-14T07:06:35;12.50;99.90
23079;DHT22;11707;50.830;4.364;2023-05-14T07:09:01;12.50;99.90
23079;DHT22;11707;50.830;4.364;2023-05-14T07:11:27;12.30;99.90
23079;DHT22;11707;50.830;4.364;2023-05-14T07:13:55;12.30;99.90
23079;DHT22;11707;50.830;4.364;2023-05-14T07:16:21;12.40;99.90
23079;DHT22;11707;50.830;4.364;2023-05-14T07:18:49;12.40;99.90
23079;DHT22;11707;50.830;4.364;2023-05-14T07:21:15;12.50;99.90
23079;DHT22;11707;50.830;4.364;2023-05-14T07:23:41;12.50;99.90
23079;DHT22;11707;50.830;4.364;2023-05-14T07:26:07;12.50;99.90
23079;DHT22;11707;50.830;4.364;2023-05-14T07:28:33;12.60;99.90
23079;DHT22;11707;50.830;4.364;2023-05-14T07:31:01;12.60;99.90
23079;DHT22;11707;50.830;4.364;2023-05-14T07:33:29;12.60;99.90
23079;DHT22;11707;50.830;4.364;2023-05-14T07:35:54;12.60;99.90
23079;DHT22;11707;50.830;4.364;2023-05-14T07:38:20;12.70;99.90
23079;DHT22;11707;50.830;4.364;2023-05-14T07:40:48;12.90;99.90
23079;DHT22;11707;50.830;4.364;2023-05-14T07:43:14;12.90;99.90
23079;DHT22;11707;50.830;4.364;2023-05-14T07:45:39;12.90;99.90
23079;DHT22;11707;50.830;4.364;2023-05-14T07:48:05;13.00;99.90
23079;DHT22;11707;50.830;4.364;2023-05-14T07:50:31;13.00;99.90
23079;DHT22;11707;50.830;4.364;2023-05-14T07:52:57;13.00;99.90
23079;DHT22;11707;50.830;4.364;2023-05-14T07:55:22;12.80;99.90
23079;DHT22;11707;50.830;4.364;2023-05-14T07:57:48;12.80;99.90
23079;DHT22;11707;50.830;4.364;2023-05-14T08:00:14;12.80;99.90
23079;DHT22;11707;50.830;4.364;2023-05-14T08:02:41;12.90;99.90
23079;DHT22;11707;50.830;4.364;2023-05-14T08:05:08;13.00;99.90
23079;DHT22;11707;50.830;4.364;2023-05-14T08:07:36;13.00;99.90
23079;DHT22;11707;50.830;4.364;2023-05-14T08:10:01;13.10;99.90
23079;DHT22;11707;50.830;4.364;2023-05-14T08:12:27;13.10;99.90
23079;DHT22;11707;50.830;4.364;2023-05-14T08:14:54;13.10;99.90
23079;DHT22;11707;50.830;4.364;2023-05-14T08:17:20;13.10;99.90
23079;DHT22;11707;50.830;4.364;2023-05-14T08:19:49;13.20;99.90
23079;DHT22;11707;50.830;4.364;2023-05-14T08:22:15;13.30;99.90
23079;DHT22;11707;50.830;4.364;2023-05-14T08:24:41;13.30;99.90
23079;DHT22;11707;50.830;4.364;2023-05-14T08:27:07;13.30;99.90
23079;DHT22;11707;50.830;4.364;2023-05-14T08:29:33;13.20;99.90
23079;DHT22;11707;50.830;4.364;2023-05-14T08:31:59;13.10;99.90
23079;DHT22;11707;50.830;4.364;2023-05-14T08:34:28;13.20;99.90
23079;DHT22;11707;50.830;4.364;2023-05-14T08:36:54;13.30;99.90
23079;DHT22;11707;50.830;4.364;2023-05-14T08:39:20;13.30;99.90
23079;DHT22;11707;50.830;4.364;2023-05-14T08:41:48;13.40;99.90
23079;DHT22;11707;50.830;4.364;2023-05-14T08:46:53;13.50;99.90
23079;DHT22;11707;50.830;4.364;2023-05-14T08:49:43;13.50;99.90
23079;DHT22;11707;50.830;4.364;2023-05-14T08:52:14;13.50;99.90
23079;DHT22;11707;50.830;4.364;2023-05-14T08:54:40;13.70;99.90
23079;DHT22;11707;50.830;4.364;2023-05-14T08:57:08;13.80;99.90
23079;DHT22;11707;50.830;4.364;2023-05-14T08:59:34;13.80;99.90
23079;DHT22;11707;50.830;4.364;2023-05-14T09:02:02;13.80;99.90
23079;DHT22;11707;50.830;4.364;2023-05-14T09:04:30;13.80;99.90
23079;DHT22;11707;50.830;4.364;2023-05-14T09:06:59;13.80;99.90
23079;DHT22;11707;50.830;4.364;2023-05-14T09:09:29;13.80;99.90
23079;DHT22;11707;50.830;4.364;2023-05-14T09:11:57;13.90;99.90
23079;DHT22;11707;50.830;4.364;2023-05-14T09:14:23;14.00;99.90
23079;DHT22;11707;50.830;4.364;2023-05-14T09:16:49;14.00;99.90
23079;DHT22;11707;50.830;4.364;2023-05-14T09:19:17;14.00;99.90
23079;DHT22;11707;50.830;4.364;2023-05-14T09:21:47;14.00;99.90
23079;DHT22;11707;50.830;4.364;2023-05-14T09:24:23;13.90;99.90
23079;DHT22;11707;50.830;4.364;2023-05-14T09:26:53;13.80;99.90
23079;DHT22;11707;50.830;4.364;2023-05-14T09:29:19;13.90;99.90
23079;DHT22;11707;50.830;4.364;2023-05-14T09:31:49;13.90;99.90
23079;DHT22;11707;50.830;4.364;2023-05-14T09:34:29;14.10;99.90
23079;DHT22;11707;50.830;4.364;2023-05-14T09:36:57;14.20;99.90
23079;DHT22;11707;50.830;4.364;2023-05-14T09:39:24;14.50;99.90
23079;DHT22;11707;50.830;4.364;2023-05-14T09:41:50;14.60;97.00
23079;DHT22;11707;50.830;4.364;2023-05-14T09:44:17;14.60;97.80
23079;DHT22;11707;50.830;4.364;2023-05-14T09:46:46;14.80;97.40
23079;DHT22;11707;50.830;4.364;2023-05-14T09:49:13;14.80;95.50
23079;DHT22;11707;50.830;4.364;2023-05-14T09:51:39;15.00;94.20
23079;DHT22;11707;50.830;4.364;2023-05-14T09:54:08;15.20;94.00
23079;DHT22;11707;50.830;4.364;2023-05-14T09:56:34;15.30;91.10
23079;DHT22;11707;50.830;4.364;2023-05-14T09:59:01;15.30;91.50
23079;DHT22;11707;50.830;4.364;2023-05-14T10:01:28;15.50;90.60
23079;DHT22;11707;50.830;4.364;2023-05-14T10:03:55;15.70;84.80
23079;DHT22;11707;50.830;4.364;2023-05-14T10:06:26;15.60;87.30
23079;DHT22;11707;50.830;4.364;2023-05-14T10:08:55;15.60;90.00
23079;DHT22;11707;50.830;4.364;2023-05-14T10:11:23;15.70;89.30
23079;DHT22;11707;50.830;4.364;2023-05-14T10:14:07;15.90;83.30
23079;DHT22;11707;50.830;4.364;2023-05-14T10:16:40;15.90;85.00
23079;DHT22;11707;50.830;4.364;2023-05-14T10:19:09;15.70;84.30
23079;DHT22;11707;50.830;4.364;2023-05-14T10:21:37;15.70;89.70
23079;DHT22;11707;50.830;4.364;2023-05-14T10:24:04;15.90;87.60
23079;DHT22;11707;50.830;4.364;2023-05-14T10:26:31;16.00;83.50
23079;DHT22;11707;50.830;4.364;2023-05-14T10:28:58;16.10;81.10
23079;DHT22;11707;50.830;4.364;2023-05-14T10:34:41;16.20;72.80
23079;DHT22;11707;50.830;4.364;2023-05-14T10:37:24;16.20;72.60
23079;DHT22;11707;50.830;4.364;2023-05-14T10:39:52;16.30;68.90
23079;DHT22;11707;50.830;4.364;2023-05-14T10:42:22;16.10;69.20
23079;DHT22;11707;50.830;4.364;2023-05-14T10:44:51;15.90;80.70
23079;DHT22;11707;50.830;4.364;2023-05-14T10:47:20;16.10;68.30
23079;DHT22;11707;50.830;4.364;2023-05-14T10:49:46;16.10;70.10
23079;DHT22;11707;50.830;4.364;2023-05-14T10:52:16;16.20;71.00
23079;DHT22;11707;50.830;4.364;2023-05-14T10:54:59;16.20;69.80
23079;DHT22;11707;50.830;4.364;2023-05-14T10:57:29;16.10;75.10
23079;DHT22;11707;50.830;4.364;2023-05-14T10:59:57;16.10;76.90
23079;DHT22;11707;50.830;4.364;2023-05-14T11:02:33;16.20;77.10
23079;DHT22;11707;50.830;4.364;2023-05-14T11:05:06;16.60;70.00
23079;DHT22;11707;50.830;4.364;2023-05-14T11:07:36;16.80;59.80
23079;DHT22;11707;50.830;4.364;2023-05-14T11:12:33;16.90;51.50
23079;DHT22;11707;50.830;4.364;2023-05-14T11:15:00;16.80;1.00
23079;DHT22;11707;50.830;4.364;2023-05-14T11:17:29;16.90;1.00
23079;DHT22;11707;50.830;4.364;2023-05-14T11:19:56;17.10;1.00
23079;DHT22;11707;50.830;4.364;2023-05-14T11:22:22;17.10;1.00
23079;DHT22;11707;50.830;4.364;2023-05-14T11:24:49;17.00;1.00
23079;DHT22;11707;50.830;4.364;2023-05-14T11:27:16;17.10;1.00
23079;DHT22;11707;50.830;4.364;2023-05-14T11:29:43;17.40;1.00
23079;DHT22;11707;50.830;4.364;2023-05-14T11:32:10;17.60;1.00
23079;DHT22;11707;50.830;4.364;2023-05-14T11:34:36;17.60;1.00
23079;DHT22;11707;50.830;4.364;2023-05-14T11:37:06;17.60;1.00
23079;DHT22;11707;50.830;4.364;2023-05-14T11:39:35;17.60;1.00
23079;DHT22;11707;50.830;4.364;2023-05-14T11:42:09;17.70;1.00
23079;DHT22;11707;50.830;4.364;2023-05-14T11:44:37;17.80;1.00
23079;DHT22;11707;50.830;4.364;2023-05-14T11:47:03;17.90;1.00
23079;DHT22;11707;50.830;4.364;2023-05-14T11:49:30;18.00;1.00
23079;DHT22;11707;50.830;4.364;2023-05-14T11:52:07;18.00;1.00
23079;DHT22;11707;50.830;4.364;2023-05-14T11:54:36;18.00;1.00
23079;DHT22;11707;50.830;4.364;2023-05-14T11:57:12;18.10;1.00
23079;DHT22;11707;50.830;4.364;2023-05-14T11:59:38;18.00;1.00
23079;DHT22;11707;50.830;4.364;2023-05-14T12:02:12;18.10;1.00
23079;DHT22;11707;50.830;4.364;2023-05-14T12:04:38;18.40;1.00
23079;DHT22;11707;50.830;4.364;2023-05-14T12:07:14;18.50;1.00
23079;DHT22;11707;50.830;4.364;2023-05-14T12:09:43;18.40;1.00
23079;DHT22;11707;50.830;4.364;2023-05-14T12:12:20;18.30;1.00
23079;DHT22;11707;50.830;4.364;2023-05-14T12:14:47;18.40;1.00
23079;DHT22;11707;50.830;4.364;2023-05-14T12:17:13;18.60;1.00
23079;DHT22;11707;50.830;4.364;2023-05-14T12:19:40;18.70;1.00
23079;DHT22;11707;50.830;4.364;2023-05-14T12:22:08;18.70;1.00
23079;DHT22;11707;50.830;4.364;2023-05-14T12:24:34;18.60;1.00
23079;DHT22;11707;50.830;4.364;2023-05-14T12:27:01;18.50;1.00
23079;DHT22;11707;50.830;4.364;2023-05-14T12:29:27;18.30;1.00
23079;DHT22;11707;50.830;4.364;2023-05-14T12:31:52;18.30;1.00
23079;DHT22;11707;50.830;4.364;2023-05-14T12:34:18;18.60;1.00
23079;DHT22;11707;50.830;4.364;2023-05-14T12:36:44;19.00;99.90
23079;DHT22;11707;50.830;4.364;2023-05-14T12:39:10;19.00;99.90
23079;DHT22;11707;50.830;4.364;2023-05-14T12:41:36;18.90;99.90
23079;DHT22;11707;50.830;4.364;2023-05-14T12:44:03;19.20;99.90
23079;DHT22;11707;50.830;4.364;2023-05-14T12:46:32;20.10;99.90
23079;DHT22;11707;50.830;4.364;2023-05-14T12:48:58;21.10;1.00
23079;DHT22;11707;50.830;4.364;2023-05-14T12:51:25;21.30;99.90
23079;DHT22;11707;50.830;4.364;2023-05-14T12:53:50;21.90;99.90
23079;DHT22;11707;50.830;4.364;2023-05-14T12:56:18;22.90;1.00
23079;DHT22;11707;50.830;4.364;2023-05-14T12:58:44;24.30;99.90
23079;DHT22;11707;50.830;4.364;2023-05-14T13:01:11;24.80;99.90
23079;DHT22;11707;50.830;4.364;2023-05-14T13:03:36;24.50;99.90
23079;DHT22;11707;50.830;4.364;2023-05-14T13:06:02;24.40;7.00
23079;DHT22;11707;50.830;4.364;2023-05-14T13:08:28;24.40;99.90
23079;DHT22;11707;50.830;4.364;2023-05-14T13:10:54;25.80;99.90
23079;DHT22;11707;50.830;4.364;2023-05-14T13:13:21;25.80;1.00
23079;DHT22;11707;50.830;4.364;2023-05-14T13:15:47;25.30;1.00
23079;DHT22;11707;50.830;4.364;2023-05-14T13:18:13;24.60;99.90
23079;DHT22;11707;50.830;4.364;2023-05-14T13:20:39;24.40;99.90
23079;DHT22;11707;50.830;4.364;2023-05-14T13:23:05;24.40;99.90
23079;DHT22;11707;50.830;4.364;2023-05-14T13:25:31;24.20;99.90
23079;DHT22;11707;50.830;4.364;2023-05-14T13:27:57;24.70;99.90
23079;DHT22;11707;50.830;4.364;2023-05-14T13:30:23;24.50;99.90
23079;DHT22;11707;50.830;4.364;2023-05-14T13:32:49;24.60;99.90
23079;DHT22;11707;50.830;4.364;2023-05-14T13:35:15;24.10;99.90
23079;DHT22;11707;50.830;4.364;2023-05-14T13:37:45;24.20;99.90
23079;DHT22;11707;50.830;4.364;2023-05-14T13:40:11;24.20;99.90
23079;DHT22;11707;50.830;4.364;2023-05-14T13:42:37;24.00;51.50
23079;DHT22;11707;50.830;4.364;2023-05-14T13:45:04;24.00;1.00
23079;DHT22;11707;50.830;4.364;2023-05-14T13:47:30;24.20;1.00
23079;DHT22;11707;50.830;4.364;2023-05-14T13:49:57;24.50;1.00
23079;DHT22;11707;50.830;4.364;2023-05-14T13:52:23;24.40;1.00
23079;DHT22;11707;50.830;4.364;2023-05-14T13:54:49;24.20;35.60
23079;DHT22;11707;50.830;4.364;2023-05-14T13:57:14;24.00;99.90
23079;DHT22;11707;50.830;4.364;2023-05-14T13:59:40;23.80;99.90
23079;DHT22;11707;50.830;4.364;2023-05-14T14:02:07;23.60;99.90
23079;DHT22;11707;50.830;4.364;2023-05-14T14:04:35;23.70;99.90
23079;DHT22;11707;50.830;4.364;2023-05-14T14:07:04;23.80;99.90
23079;DHT22;11707;50.830;4.364;2023-05-14T14:09:29;24.20;99.90
23079;DHT22;11707;50.830;4.364;2023-05-14T14:12:01;24.50;61.70
23079;DHT22;11707;50.830;4.364;2023-05-14T14:14:27;24.90;1.00
23079;DHT22;11707;50.830;4.364;2023-05-14T14:16:53;25.00;1.00
23079;DHT22;11707;50.830;4.364;2023-05-14T14:19:19;24.60;99.90
23079;DHT22;11707;50.830;4.364;2023-05-14T14:21:47;24.20;1.00
23079;DHT22;11707;50.830;4.364;2023-05-14T14:24:15;23.60;1.00
23079;DHT22;11707;50.830;4.364;2023-05-14T14:26:41;23.30;99.90
23079;DHT22;11707;50.830;4.364;2023-05-14T14:29:07;23.00;99.90
23079;DHT22;11707;50.830;4.364;2023-05-14T14:31:35;22.80;1.00
23079;DHT22;11707;50.830;4.364;2023-05-14T14:34:03;22.60;13.90
23079;DHT22;11707;50.830;4.364;2023-05-14T14:36:29;22.00;1.00
23079;DHT22;11707;50.830;4.364;2023-05-14T14:38:56;21.80;94.00
23079;DHT22;11707;50.830;4.364;2023-05-14T14:41:21;21.90;99.90
23079;DHT22;11707;50.830;4.364;2023-05-14T14:43:49;21.80;99.90
23079;DHT22;11707;50.830;4.364;2023-05-14T14:46:15;21.80;99.90
23079;DHT22;11707;50.830;4.364;2023-05-14T14:48:41;21.80;99.90
23079;DHT22;11707;50.830;4.364;2023-05-14T14:51:07;21.90;1.00
23079;DHT22;11707;50.830;4.364;2023-05-14T14:53:34;21.90;1.00
23079;DHT22;11707;50.830;4.364;2023-05-14T14:56:00;21.90;99.90
23079;DHT22;11707;50.830;4.364;2023-05-14T14:58:27;22.00;99.90
23079;DHT22;11707;50.830;4.364;2023-05-14T15:00:54;22.00;99.90
23079;DHT22;11707;50.830;4.364;2023-05-14T15:03:21;21.90;1.00
23079;DHT22;11707;50.830;4.364;2023-05-14T15:05:47;21.80;99.90
23079;DHT22;11707;50.830;4.364;2023-05-14T15:08:14;21.70;1.00
23079;DHT22;11707;50.830;4.364;2023-05-14T15:10:39;21.60;1.00
23079;DHT22;11707;50.830;4.364;2023-05-14T15:13:08;21.70;1.00
23079;DHT22;11707;50.830;4.364;2023-05-14T15:15:36;21.60;1.00
23079;DHT22;11707;50.830;4.364;2023-05-14T15:18:02;21.10;99.90
23079;DHT22;11707;50.830;4.364;2023-05-14T15:20:30;21.00;99.90
23079;DHT22;11707;50.830;4.364;2023-05-14T15:22:56;20.70;1.00
23079;DHT22;11707;50.830;4.364;2023-05-14T15:25:22;20.60;1.00
23079;DHT22;11707;50.830;4.364;2023-05-14T15:27:49;20.40;13.80
23079;DHT22;11707;50.830;4.364;2023-05-14T15:30:15;20.30;1.00
23079;DHT22;11707;50.830;4.364;2023-05-14T15:32:44;20.20;91.60
23079;DHT22;11707;50.830;4.364;2023-05-14T15:35:10;20.20;99.90
23079;DHT22;11707;50.830;4.364;2023-05-14T15:37:39;20.00;52.00
23079;DHT22;11707;50.830;4.364;2023-05-14T15:40:05;19.80;99.90
23079;DHT22;11707;50.830;4.364;2023-05-14T15:42:39;19.70;99.90
23079;DHT22;11707;50.830;4.364;2023-05-14T15:45:07;19.50;99.90
23079;DHT22;11707;50.830;4.364;2023-05-14T15:47:35;19.30;99.90
23079;DHT22;11707;50.830;4.364;2023-05-14T15:50:01;19.20;1.00
23079;DHT22;11707;50.830;4.364;2023-05-14T15:52:27;19.10;1.00